Time;durP1;ratioP1;P1;durP2;ratioP2;P2;SDS_P1;SDS_P2;PMS_P1;PMS_P2;Temp;Humidity;BMP_temperature;BMP_pressure;BME280_temperature;BME280_humidity;BME280_pressure;Samples;Min_cycle;Max_cycle;Signal;HPM_P1;HPM_P2
2023/10/07 00:00:28;;;;;;;19.08;11.60;;;7.70;99.90;;;;;;8365087;28;20029;-78
2023/10/07 00:04:30;;;;;;;23.10;12.38;;;7.60;99.90;;;;;;8386591;28;20108;-80
2023/10/07 00:08:34;;;;;;;19.10;11.98;;;7.50;99.90;;;;;;8346724;28;20104;-79
2023/10/07 00:12:35;;;;;;;20.88;11.40;;;7.50;99.90;;;;;;8378429;28;20017;-78
2023/10/07 00:16:37;;;;;;;22.17;12.27;;;7.50;99.90;;;;;;8378379;28;20512;-79
2023/10/07 00:20:51;;;;;;;23.33;12.23;;;7.50;99.90;;;;;;8345356;28;20024;-80
2023/10/07 00:24:52;;;;;;;20.60;11.27;;;7.40;99.90;;;;;;8369927;28;20060;-78
2023/10/07 00:29:12;;;;;;;19.38;11.30;;;7.30;99.90;;;;;;8348014;28;20039;-79
2023/10/07 00:33:14;;;;;;;24.30;12.70;;;7.20;99.90;;;;;;8341237;28;20097;-79
2023/10/07 00:37:18;;;;;;;20.70;12.23;;;7.10;99.90;;;;;;8353248;28;20485;-79
2023/10/07 00:41:18;;;;;;;23.77;11.65;;;7.20;99.90;;;;;;8361213;28;20104;-79
2023/10/07 00:45:20;;;;;;;23.70;12.25;;;7.30;99.90;;;;;;8345931;28;20039;-79
2023/10/07 00:49:27;;;;;;;23.73;12.48;;;7.40;99.90;;;;;;8381952;28;20465;-79
2023/10/07 00:53:30;;;;;;;23.55;12.60;;;7.40;99.90;;;;;;8359672;28;20469;-79
2023/10/07 01:01:36;;;;;;;26.23;13.93;;;7.70;99.90;;;;;;8386361;28;20050;-79
2023/10/07 01:05:38;;;;;;;29.65;15.18;;;7.80;99.90;;;;;;8376726;28;20020;-79
2023/10/07 01:09:39;;;;;;;32.05;15.65;;;7.80;99.90;;;;;;8351424;28;20072;-79
2023/10/07 01:13:48;;;;;;;30.48;15.70;;;7.90;99.90;;;;;;8357376;28;20021;-79
2023/10/07 01:17:56;;;;;;;34.15;16.17;;;8.00;99.90;;;;;;8364786;28;20068;-79
2023/10/07 01:22:17;;;;;;;36.88;17.10;;;8.00;99.90;;;;;;8369906;28;20032;-78
2023/10/07 01:26:23;;;;;;;33.05;17.35;;;7.90;99.90;;;;;;8351718;28;20021;-79
2023/10/07 01:30:29;;;;;;;38.22;17.63;;;8.00;99.90;;;;;;8368144;28;20032;-79
2023/10/07 01:34:35;;;;;;;35.92;18.23;;;8.20;99.90;;;;;;8371834;28;20066;-79
2023/10/07 01:38:40;;;;;;;35.60;17.63;;;8.10;99.90;;;;;;8391633;28;20027;-79
2023/10/07 01:42:45;;;;;;;31.05;16.63;;;8.10;99.90;;;;;;8371244;28;20025;-78
2023/10/07 01:46:47;;;;;;;30.30;16.40;;;7.90;99.90;;;;;;8361356;28;20059;-79
2023/10/07 01:50:49;;;;;;;32.47;16.48;;;7.80;99.90;;;;;;8369775;28;20031;-78
2023/10/07 01:54:52;;;;;;;28.70;16.17;;;7.70;99.90;;;;;;8358901;28;20012;-79
2023/10/07 01:59:09;;;;;;;27.25;15.82;;;7.60;99.90;;;;;;8371846;28;20033;-78
2023/10/07 02:03:13;;;;;;;24.65;13.98;;;7.50;99.90;;;;;;8359937;28;20500;-79
2023/10/07 02:07:15;;;;;;;22.10;11.88;;;7.40;99.90;;;;;;8348851;28;20029;-78
2023/10/07 02:11:26;;;;;;;19.17;10.23;;;7.20;99.90;;;;;;8357385;28;20052;-80
2023/10/07 02:15:27;;;;;;;16.20;10.02;;;6.90;99.90;;;;;;8357479;28;20032;-79
2023/10/07 02:19:32;;;;;;;19.13;10.50;;;6.40;99.90;;;;;;8346847;28;20382;-78
2023/10/07 02:23:45;;;;;;;19.35;11.23;;;6.20;99.90;;;;;;8348423;28;20079;-79
2023/10/07 02:27:49;;;;;;;26.67;13.75;;;6.20;99.90;;;;;;8349127;28;20025;-79
2023/10/07 02:31:50;;;;;;;29.98;14.27;;;6.30;99.90;;;;;;8339741;28;20108;-79
2023/10/07 02:35:55;;;;;;;28.63;14.90;;;6.40;99.90;;;;;;8365246;28;20078;-79
2023/10/07 02:40:18;;;;;;;30.85;14.05;;;6.40;99.90;;;;;;8350337;28;20424;-79
2023/10/07 02:44:27;;;;;;;26.40;13.32;;;6.30;99.90;;;;;;8372595;28;20036;-79
2023/10/07 02:48:34;;;;;;;61.70;13.80;;;6.20;99.90;;;;;;8382483;28;20033;-79
2023/10/07 02:52:36;;;;;;;40.92;12.52;;;6.30;99.90;;;;;;8374133;28;20403;-78
2023/10/07 02:56:54;;;;;;;26.38;14.55;;;6.20;99.90;;;;;;8382602;28;20017;-79
2023/10/07 03:01:10;;;;;;;25.38;12.32;;;6.00;99.90;;;;;;8354010;28;20102;-79
2023/10/07 03:09:18;;;;;;;23.80;12.90;;;5.90;99.90;;;;;;8372389;28;20120;-79
2023/10/07 03:13:19;;;;;;;26.30;13.38;;;5.70;99.90;;;;;;8356459;28;20024;-78
2023/10/07 03:17:19;;;;;;;24.40;13.38;;;5.80;99.90;;;;;;8382249;28;20536;-79
2023/10/07 03:21:21;;;;;;;31.13;13.10;;;5.90;99.90;;;;;;8342323;28;20032;-79
2023/10/07 03:25:22;;;;;;;28.85;12.32;;;6.30;99.90;;;;;;8367520;28;20024;-79
2023/10/07 03:29:31;;;;;;;24.63;13.18;;;6.30;99.90;;;;;;8350887;28;20049;-78
2023/10/07 03:33:45;;;;;;;24.97;12.83;;;6.20;99.90;;;;;;8358965;28;20016;-79
2023/10/07 03:37:45;;;;;;;27.73;13.50;;;6.20;99.90;;;;;;8366708;28;20430;-77
2023/10/07 03:41:59;;;;;;;19.52;11.63;;;6.00;99.90;;;;;;8345657;28;20029;-79
2023/10/07 03:46:00;;;;;;;20.13;11.32;;;5.80;99.90;;;;;;8353349;28;20025;-79
2023/10/07 03:50:20;;;;;;;19.00;11.65;;;5.80;99.90;;;;;;8372180;28;20032;-79
2023/10/07 03:54:29;;;;;;;20.35;11.38;;;6.40;99.90;;;;;;8358287;28;20025;-79
2023/10/07 03:58:32;;;;;;;20.00;11.33;;;6.60;99.90;;;;;;8348112;28;20036;-79
2023/10/07 04:02:35;;;;;;;17.05;10.30;;;6.50;99.90;;;;;;8367958;28;20030;-79
2023/10/07 04:06:36;;;;;;;16.83;10.00;;;6.30;99.90;;;;;;8347976;28;20103;-79
2023/10/07 04:10:45;;;;;;;20.90;11.10;;;6.00;99.90;;;;;;8340907;28;20014;-79
2023/10/07 04:14:45;;;;;;;22.63;11.40;;;6.10;99.90;;;;;;8367675;28;20013;-79
2023/10/07 04:18:46;;;;;;;39.03;9.02;;;6.00;99.90;;;;;;8347295;28;20455;-78
2023/10/07 04:22:57;;;;;;;22.40;7.82;;;6.10;99.90;;;;;;8366481;28;20035;-79
2023/10/07 04:27:03;;;;;;;15.65;8.27;;;5.90;99.90;;;;;;8353200;28;20029;-79
2023/10/07 04:31:09;;;;;;;14.80;8.45;;;5.60;99.90;;;;;;8355552;28;20219;-79
2023/10/07 04:39:18;;;;;;;16.92;10.07;;;5.40;99.90;;;;;;8361097;28;20131;-83
2023/10/07 04:43:36;;;;;;;17.95;10.13;;;5.50;99.90;;;;;;8347623;28;20021;-81
2023/10/07 04:47:38;;;;;;;17.30;9.80;;;5.40;99.90;;;;;;8350036;28;20028;-82
2023/10/07 04:55:42;;;;;;;16.88;10.32;;;5.20;99.90;;;;;;8367545;28;20029;-82
2023/10/07 04:59:45;;;;;;;16.52;9.90;;;5.10;99.90;;;;;;8351404;28;20029;-83
2023/10/07 05:03:46;;;;;;;22.90;11.15;;;5.20;99.90;;;;;;8352978;28;20549;-83
2023/10/07 05:07:48;;;;;;;17.88;10.23;;;5.20;99.90;;;;;;8347946;28;20040;-84
2023/10/07 05:11:49;;;;;;;16.92;10.20;;;5.20;99.90;;;;;;8342160;28;20412;-82
2023/10/07 05:15:50;;;;;;;20.35;11.18;;;5.40;99.90;;;;;;8350509;28;20036;-82
2023/10/07 05:19:50;;;;;;;18.55;10.63;;;5.30;99.90;;;;;;8370927;28;20031;-83
2023/10/07 05:23:51;;;;;;;19.23;10.18;;;5.10;99.90;;;;;;8358967;28;20417;-83
2023/10/07 05:27:52;;;;;;;17.83;9.63;;;5.10;99.90;;;;;;8359410;28;20029;-83
2023/10/07 05:31:52;;;;;;;14.35;8.52;;;5.00;99.90;;;;;;8368118;28;20035;-81
2023/10/07 05:36:24;;;;;;;15.35;8.38;;;4.70;99.90;;;;;;8363861;28;20044;-81
2023/10/07 05:40:25;;;;;;;13.50;8.25;;;4.50;99.90;;;;;;8363759;28;20028;-80
2023/10/07 05:44:26;;;;;;;16.30;10.35;;;4.30;99.90;;;;;;8367347;28;20040;-83
2023/10/07 05:48:27;;;;;;;18.92;10.57;;;4.30;99.90;;;;;;8372634;28;20024;-83
2023/10/07 05:52:31;;;;;;;16.65;9.38;;;4.50;99.90;;;;;;8386389;28;20017;-81
2023/10/07 05:56:32;;;;;;;20.08;10.80;;;4.80;99.90;;;;;;8381456;28;20041;-83
2023/10/07 06:00:33;;;;;;;19.25;10.15;;;5.00;99.90;;;;;;8373212;28;20432;-83
2023/10/07 06:04:34;;;;;;;17.60;10.02;;;5.00;99.90;;;;;;8375002;28;20078;-82
2023/10/07 06:08:35;;;;;;;19.65;9.90;;;5.10;99.90;;;;;;8376922;28;20024;-83
2023/10/07 06:12:36;;;;;;;20.83;10.82;;;5.30;99.90;;;;;;8381378;28;20093;-82
2023/10/07 06:16:37;;;;;;;23.70;10.48;;;5.80;99.90;;;;;;8369372;28;20025;-81
2023/10/07 06:20:37;;;;;;;16.17;9.32;;;6.00;99.90;;;;;;8369935;28;20050;-83
2023/10/07 06:24:39;;;;;;;19.25;9.98;;;6.40;99.90;;;;;;8365068;28;20035;-83
2023/10/07 06:28:48;;;;;;;19.67;10.35;;;6.50;99.90;;;;;;8367867;28;20035;-83
2023/10/07 06:32:55;;;;;;;17.77;10.55;;;6.60;99.90;;;;;;8374667;28;20027;-83
2023/10/07 06:36:56;;;;;;;17.52;10.55;;;6.80;99.90;;;;;;8376037;28;20634;-82
2023/10/07 06:40:57;;;;;;;17.33;10.20;;;7.00;99.90;;;;;;8360835;28;20500;-83
2023/10/07 06:45:06;;;;;;;15.80;9.32;;;7.10;99.90;;;;;;8384903;28;20088;-83
2023/10/07 06:49:17;;;;;;;14.77;9.55;;;7.00;99.90;;;;;;8372722;28;20092;-82
2023/10/07 06:53:22;;;;;;;16.50;10.82;;;7.10;99.90;;;;;;8359105;28;20032;-81
2023/10/07 06:57:28;;;;;;;19.52;10.13;;;7.30;99.90;;;;;;8378467;28;20024;-83
2023/10/07 07:01:51;;;;;;;17.60;9.82;;;7.40;99.90;;;;;;8354305;28;20029;-82
2023/10/07 07:05:54;;;;;;;15.65;10.50;;;7.60;99.90;;;;;;8381744;28;20059;-82
2023/10/07 07:09:58;;;;;;;17.10;10.52;;;8.00;99.90;;;;;;8388385;28;20028;-82
2023/10/07 07:13:59;;;;;;;26.90;12.77;;;8.20;99.90;;;;;;8363335;28;20029;-81
2023/10/07 07:22:12;;;;;;;30.13;14.05;;;9.40;99.90;;;;;;8388692;28;20511;-82
2023/10/07 07:26:18;;;;;;;23.80;13.60;;;10.00;99.90;;;;;;8354868;28;20041;-82
2023/10/07 07:30:22;;;;;;;21.67;12.73;;;10.50;99.90;;;;;;8374032;28;20531;-81
2023/10/07 07:34:26;;;;;;;18.10;11.15;;;11.20;99.90;;;;;;8365557;28;20485;-83
2023/10/07 07:38:30;;;;;;;19.25;11.15;;;11.50;99.90;;;;;;8349804;28;20028;-82
2023/10/07 07:42:32;;;;;;;17.95;10.30;;;11.90;99.90;;;;;;8371622;28;20028;-83
2023/10/07 07:51:09;;;;;;;13.73;7.85;;;12.90;99.90;;;;;;8247958;28;20043;-82
2023/10/07 07:55:14;;;;;;;12.63;7.60;;;13.50;99.90;;;;;;8365235;28;20025;-82
2023/10/07 07:59:15;;;;;;;11.77;6.68;;;13.70;99.90;;;;;;8374911;28;20409;-82
2023/10/07 08:03:16;;;;;;;14.27;7.95;;;14.20;99.90;;;;;;8352302;28;20029;-83
2023/10/07 08:07:27;;;;;;;12.93;7.93;;;14.50;99.90;;;;;;8353387;28;20497;-83
2023/10/07 08:11:34;;;;;;;12.65;8.02;;;14.60;99.90;;;;;;8380507;28;20066;-83
2023/10/07 08:15:41;;;;;;;11.77;7.68;;;14.50;99.90;;;;;;8371873;28;20050;-83
2023/10/07 08:19:42;;;;;;;17.95;8.15;;;14.40;99.90;;;;;;8372251;28;20501;-82
2023/10/07 08:23:44;;;;;;;12.25;7.00;;;14.70;99.90;;;;;;8366934;28;20059;-83
2023/10/07 08:27:44;;;;;;;10.27;6.88;;;14.60;99.90;;;;;;8363994;28;20059;-84
2023/10/07 08:31:49;;;;;;;12.90;7.30;;;14.70;99.90;;;;;;8359903;28;20027;-85
2023/10/07 08:35:51;;;;;;;12.23;7.18;;;14.80;99.90;;;;;;8355553;28;20036;-83
2023/10/07 08:39:56;;;;;;;10.10;6.18;;;15.00;99.90;;;;;;8357182;28;20460;-84
2023/10/07 08:44:15;;;;;;;9.13;6.18;;;15.30;99.90;;;;;;8355020;28;20465;-82
2023/10/07 08:48:16;;;;;;;8.88;5.70;;;15.60;99.90;;;;;;8342551;28;20025;-83
2023/10/07 08:52:19;;;;;;;10.80;6.63;;;16.20;99.90;;;;;;8360714;28;20033;-83
2023/10/07 08:56:24;;;;;;;10.38;5.82;;;16.20;99.90;;;;;;8365848;28;20020;-83
2023/10/07 09:00:31;;;;;;;9.57;6.47;;;16.20;99.90;;;;;;8331977;28;20108;-84
2023/10/07 09:04:32;;;;;;;10.55;6.22;;;16.30;99.90;;;;;;8376124;28;20017;-83
2023/10/07 09:08:33;;;;;;;10.75;6.70;;;16.80;99.90;;;;;;8349121;28;20033;-82
2023/10/07 09:12:41;;;;;;;8.60;5.63;;;16.90;99.90;;;;;;8362798;28;20534;-84
2023/10/07 09:16:44;;;;;;;8.95;6.18;;;16.80;99.90;;;;;;8379423;28;20503;-84
2023/10/07 09:20:45;;;;;;;10.27;6.70;;;16.60;99.90;;;;;;8362992;28;20028;-82
2023/10/07 09:24:46;;;;;;;9.13;5.82;;;16.80;99.90;;;;;;8356925;28;20049;-84
2023/10/07 09:29:00;;;;;;;10.10;5.65;;;16.90;99.90;;;;;;8364069;28;20040;-84
2023/10/07 09:33:17;;;;;;;7.95;5.63;;;17.30;99.90;;;;;;8340589;28;20120;-84
2023/10/07 09:37:21;;;;;;;8.75;5.20;;;17.90;99.90;;;;;;8376757;28;20516;-84
2023/10/07 09:45:32;;;;;;;9.90;5.53;;;18.80;99.90;;;;;;8370687;28;20033;-86
2023/10/07 09:49:33;;;;;;;6.80;3.97;;;19.20;99.90;;;;;;8344832;28;20037;-85
2023/10/07 09:53:48;;;;;;;8.05;3.88;;;19.80;99.90;;;;;;8361856;28;20069;-85
2023/10/07 09:57:55;;;;;;;5.70;3.85;;;19.50;99.90;;;;;;8352735;28;20028;-86
2023/10/07 10:02:43;;;;;;;7.88;3.85;;;20.60;99.90;;;;;;8352144;28;20021;-86
2023/10/07 10:06:55;;;;;;;6.82;4.10;;;21.30;99.90;;;;;;8368843;28;20476;-86
2023/10/07 10:10:59;;;;;;;6.65;3.92;;;21.40;99.90;;;;;;8362092;28;20029;-86
2023/10/07 10:15:50;;;;;;;7.00;4.05;;;21.50;99.90;;;;;;8383250;28;20500;-85
2023/10/07 10:19:49;;;;;;;8.85;4.30;;;21.40;99.90;;;;;;8369178;28;20028;-85
2023/10/07 10:24:29;;;;;;;10.68;7.75;;;21.50;99.90;;;;;;8358286;28;20032;-86
2023/10/07 10:29:16;;;;;;;;;;;;;;;;;;;;;
2023/10/07 10:33:49;;;;;;;;;;;;;;;;;;;;;
2023/10/07 10:37:57;;;;;;;7.15;3.50;;;22.90;99.90;;;;;;8327999;22;20056;-82
2023/10/07 10:42:02;;;;;;;6.07;3.25;;;22.90;99.90;;;;;;8351707;28;20025;-81
2023/10/07 10:46:05;;;;;;;6.47;4.40;;;22.80;99.90;;;;;;8335557;28;20020;-82
2023/10/07 10:50:15;;;;;;;6.35;3.72;;;22.40;99.90;;;;;;8342790;28;20467;-82
2023/10/07 10:54:19;;;;;;;5.30;3.20;;;22.10;99.90;;;;;;8367637;28;20013;-83
2023/10/07 10:58:30;;;;;;;5.32;3.05;;;22.90;99.90;;;;;;8345152;28;20037;-83
2023/10/07 11:02:39;;;;;;;5.18;3.05;;;24.70;99.90;;;;;;8353073;28;20021;-82
2023/10/07 11:06:43;;;;;;;5.95;3.08;;;26.40;99.90;;;;;;8357965;28;20029;-82
2023/10/07 11:10:44;;;;;;;6.15;2.80;;;26.00;96.40;;;;;;8349420;28;20013;-82
2023/10/07 11:14:47;;;;;;;4.18;2.67;;;25.40;95.30;;;;;;8357545;28;20106;-82
2023/10/07 11:18:49;;;;;;;4.47;3.17;;;24.90;96.50;;;;;;8350321;28;20029;-83
2023/10/07 11:22:50;;;;;;;5.22;3.17;;;24.80;97.20;;;;;;8353801;28;20031;-83
2023/10/07 11:26:52;;;;;;;4.20;3.28;;;24.50;98.40;;;;;;8333502;28;20508;-81
2023/10/07 11:30:53;;;;;;;4.75;3.30;;;24.10;98.00;;;;;;8346277;28;20028;-82
2023/10/07 11:34:55;;;;;;;6.20;3.10;;;23.80;99.90;;;;;;8368818;28;20043;-80
2023/10/07 11:38:56;;;;;;;4.60;2.90;;;23.90;99.80;;;;;;8339569;28;20041;-82
2023/10/07 11:43:02;;;;;;;5.85;2.63;;;24.20;97.90;;;;;;8333911;28;20382;-82
2023/10/07 11:47:03;;;;;;;4.93;2.70;;;24.10;94.00;;;;;;8359471;28;20017;-82
2023/10/07 11:51:04;;;;;;;2.88;2.10;;;24.40;92.90;;;;;;8340110;28;20468;-81
2023/10/07 11:55:07;;;;;;;4.72;2.60;;;24.30;93.90;;;;;;8371835;28;20032;-81
2023/10/07 11:59:08;;;;;;;4.38;2.35;;;23.80;91.20;;;;;;8337345;28;20026;-81
2023/10/07 12:03:08;;;;;;;3.63;2.08;;;24.00;91.90;;;;;;8354900;28;20036;-81
2023/10/07 12:07:12;;;;;;;3.70;2.28;;;25.70;88.40;;;;;;8360249;28;20044;-81
2023/10/07 12:11:13;;;;;;;4.03;2.13;;;28.10;85.70;;;;;;8340309;28;20032;-82
2023/10/07 12:15:15;;;;;;;4.55;2.00;;;27.40;78.80;;;;;;8361492;28;20369;-83
2023/10/07 12:19:17;;;;;;;3.75;1.95;;;26.00;81.00;;;;;;8364658;28;20034;-82
2023/10/07 12:23:17;;;;;;;4.03;2.50;;;25.00;81.20;;;;;;8357530;28;20030;-82
2023/10/07 12:27:18;;;;;;;3.80;2.50;;;24.80;85.70;;;;;;8330678;28;20033;-81
2023/10/07 12:31:20;;;;;;;3.33;1.65;;;24.40;83.90;;;;;;8331218;28;20492;-82
2023/10/07 12:35:21;;;;;;;3.47;2.17;;;24.10;81.90;;;;;;8350607;28;20024;-81
2023/10/07 12:39:22;;;;;;;4.65;2.40;;;24.00;82.20;;;;;;8334669;28;20286;-82
2023/10/07 12:43:22;;;;;;;4.43;2.13;;;23.60;79.80;;;;;;8342640;28;20029;-82
2023/10/07 12:47:23;;;;;;;4.15;1.85;;;22.90;82.20;;;;;;8349836;28;20082;-82
2023/10/07 12:51:24;;;;;;;3.58;1.95;;;22.50;82.60;;;;;;8358114;28;20485;-82
2023/10/07 12:55:31;;;;;;;4.50;1.88;;;22.10;89.70;;;;;;8372274;28;20044;-82
2023/10/07 12:59:35;;;;;;;4.03;2.00;;;21.90;91.30;;;;;;8363154;28;20025;-81
2023/10/07 13:03:39;;;;;;;3.47;2.00;;;21.80;90.00;;;;;;8344600;28;20070;-82
2023/10/07 13:07:42;;;;;;;3.85;1.80;;;22.00;90.30;;;;;;8343706;28;20430;-81
2023/10/07 13:11:44;;;;;;;3.53;2.20;;;22.60;87.30;;;;;;8348219;28;20020;-82
2023/10/07 13:15:45;;;;;;;4.57;2.47;;;22.50;88.70;;;;;;8341248;28;20048;-81
2023/10/07 13:19:50;;;;;;;3.88;2.55;;;22.00;90.90;;;;;;8337925;28;20485;-82
2023/10/07 13:23:51;;;;;;;4.32;2.50;;;21.40;92.90;;;;;;8350572;28;20049;-82
2023/10/07 13:27:55;;;;;;;3.28;2.08;;;21.30;94.70;;;;;;8365654;28;20033;-82
2023/10/07 13:31:55;;;;;;;3.08;2.08;;;22.60;91.80;;;;;;8346045;28;20695;-82
2023/10/07 13:35:56;;;;;;;3.92;2.30;;;22.70;91.20;;;;;;8347332;28;20044;-82
2023/10/07 13:39:57;;;;;;;7.20;2.22;;;22.20;91.80;;;;;;8358567;28;20029;-82
2023/10/07 13:43:57;;;;;;;4.75;2.20;;;22.10;93.90;;;;;;8350455;28;20028;-82
2023/10/07 13:47:58;;;;;;;6.65;2.65;;;22.20;94.00;;;;;;8355153;28;20036;-82
2023/10/07 13:52:05;;;;;;;3.90;2.30;;;22.30;93.70;;;;;;8343614;28;20498;-83
2023/10/07 13:56:12;;;;;;;4.78;2.28;;;22.00;93.90;;;;;;8348018;28;20041;-82
2023/10/07 14:00:28;;;;;;;3.30;2.28;;;21.40;94.10;;;;;;8378170;28;20501;-82
2023/10/07 14:04:30;;;;;;;6.00;2.35;;;21.00;95.00;;;;;;8380025;28;20032;-82
2023/10/07 14:08:36;;;;;;;5.60;2.85;;;20.60;97.40;;;;;;8346173;28;20024;-82
2023/10/07 14:12:36;;;;;;;3.88;2.38;;;20.50;96.90;;;;;;8362217;28;20017;-83
2023/10/07 14:16:37;;;;;;;3.80;2.30;;;20.30;96.80;;;;;;8359086;28;20484;-82
2023/10/07 14:20:38;;;;;;;4.60;2.33;;;20.40;98.60;;;;;;8347463;28;20017;-82
2023/10/07 14:24:43;;;;;;;4.53;2.20;;;20.30;98.50;;;;;;8362600;28;20013;-83
2023/10/07 14:28:44;;;;;;;4.32;2.35;;;20.20;97.80;;;;;;8363780;28;20029;-82
2023/10/07 14:32:45;;;;;;;3.10;2.00;;;20.20;99.50;;;;;;8348340;28;20114;-82
2023/10/07 14:36:46;;;;;;;3.97;2.30;;;20.10;99.00;;;;;;8354568;28;20045;-82
2023/10/07 14:40:50;;;;;;;4.65;2.60;;;20.00;97.90;;;;;;8362511;28;20090;-82
2023/10/07 14:44:51;;;;;;;5.22;2.30;;;20.10;97.90;;;;;;8362834;28;20027;-81
2023/10/07 14:48:52;;;;;;;4.05;2.00;;;20.20;98.50;;;;;;8380297;28;20033;-82
2023/10/07 14:52:53;;;;;;;3.72;2.33;;;20.30;98.40;;;;;;8356778;28;20029;-82
2023/10/07 14:56:53;;;;;;;4.18;2.28;;;20.50;97.70;;;;;;8390006;28;20037;-82
2023/10/07 15:00:54;;;;;;;4.03;2.17;;;20.70;97.80;;;;;;8360337;28;20038;-82
2023/10/07 15:04:54;;;;;;;4.47;2.40;;;20.70;96.80;;;;;;8349493;28;20057;-80
2023/10/07 15:08:55;;;;;;;6.00;2.20;;;20.40;96.20;;;;;;8357287;28;20028;-82
2023/10/07 15:12:56;;;;;;;5.07;2.38;;;20.10;97.40;;;;;;8346920;28;20068;-82
2023/10/07 15:16:56;;;;;;;4.00;2.30;;;20.00;97.60;;;;;;8333172;28;20489;-83
2023/10/07 15:21:07;;;;;;;4.35;2.38;;;20.20;99.80;;;;;;8351845;28;20056;-81
2023/10/07 15:25:11;;;;;;;3.88;2.30;;;20.30;97.90;;;;;;8351895;28;20048;-82
2023/10/07 15:29:12;;;;;;;4.85;2.35;;;20.10;99.80;;;;;;8347207;28;20036;-83
2023/10/07 15:33:14;;;;;;;4.63;2.70;;;20.00;99.90;;;;;;8341408;28;20512;-83
2023/10/07 15:37:16;;;;;;;4.57;2.40;;;19.90;99.90;;;;;;8350537;28;20040;-82
2023/10/07 15:41:17;;;;;;;7.70;3.75;;;19.50;99.90;;;;;;8351105;28;20060;-82
2023/10/07 15:45:18;;;;;;;5.13;2.45;;;19.30;99.90;;;;;;8342949;28;20029;-83
2023/10/07 15:49:18;;;;;;;5.53;3.50;;;19.00;99.90;;;;;;8336911;28;20060;-82
2023/10/07 15:53:19;;;;;;;4.60;2.63;;;18.70;99.90;;;;;;8358323;28;20112;-82
2023/10/07 15:57:22;;;;;;;5.20;2.75;;;18.50;99.90;;;;;;8358478;28;20037;-81
2023/10/07 16:01:25;;;;;;;5.50;3.28;;;18.20;99.90;;;;;;8356896;28;20033;-82
2023/10/07 16:05:35;;;;;;;4.38;3.00;;;18.00;99.90;;;;;;8332909;28;20485;-81
2023/10/07 16:09:35;;;;;;;5.57;2.95;;;17.70;99.90;;;;;;8353530;28;20508;-81
2023/10/07 16:13:36;;;;;;;6.50;3.15;;;17.60;99.90;;;;;;8360690;28;20021;-81
2023/10/07 16:17:38;;;;;;;6.03;3.45;;;17.30;99.90;;;;;;8347591;28;20485;-81
2023/10/07 16:21:40;;;;;;;5.32;3.17;;;17.20;99.90;;;;;;8338003;28;20040;-81
2023/10/07 16:25:41;;;;;;;5.50;3.35;;;17.40;99.90;;;;;;8358672;28;20104;-83
2023/10/07 16:29:41;;;;;;;5.60;3.38;;;17.30;99.90;;;;;;8336126;28;20029;-82
2023/10/07 16:33:42;;;;;;;8.30;3.50;;;17.20;99.90;;;;;;8357996;28;20021;-81
2023/10/07 16:37:42;;;;;;;3.88;3.10;;;17.10;99.90;;;;;;8357633;22;20025;-85
2023/10/07 16:41:44;;;;;;;6.78;3.70;;;16.80;99.90;;;;;;8341008;28;20099;-85
2023/10/07 16:45:45;;;;;;;5.40;3.47;;;16.60;99.90;;;;;;8344577;28;20397;-85
2023/10/07 16:49:46;;;;;;;6.72;3.90;;;16.40;99.90;;;;;;8313010;28;20346;-85
2023/10/07 16:53:47;;;;;;;6.97;3.47;;;16.30;99.90;;;;;;8304445;28;20021;-85
2023/10/07 16:57:47;;;;;;;6.38;3.97;;;16.10;99.90;;;;;;8330817;28;20033;-86
2023/10/07 17:01:48;;;;;;;9.13;3.72;;;15.80;99.90;;;;;;8310205;28;20033;-86
2023/10/07 17:05:51;;;;;;;5.13;3.65;;;15.40;99.90;;;;;;8331057;28;20021;-84
2023/10/07 17:09:53;;;;;;;5.30;3.83;;;15.20;99.90;;;;;;8315784;28;20033;-84
2023/10/07 17:13:54;;;;;;;6.80;4.05;;;15.10;99.90;;;;;;8325202;28;20104;-84
2023/10/07 17:17:54;;;;;;;6.57;4.00;;;15.00;99.90;;;;;;8313822;28;20404;-84
2023/10/07 17:21:55;;;;;;;8.23;5.00;;;15.10;99.90;;;;;;8320264;28;20040;-84
2023/10/07 17:25:56;;;;;;;8.07;4.63;;;15.10;99.90;;;;;;8323937;28;20509;-84
2023/10/07 17:29:56;;;;;;;5.97;4.18;;;15.00;99.90;;;;;;8300627;28;20286;-84
2023/10/07 17:33:58;;;;;;;7.15;4.88;;;14.80;99.90;;;;;;8315233;28;20076;-84
2023/10/07 17:37:58;;;;;;;5.68;4.35;;;14.60;99.90;;;;;;8312819;28;20059;-83
2023/10/07 17:42:02;;;;;;;8.95;5.30;;;14.50;99.90;;;;;;8317999;28;20029;-82
2023/10/07 17:46:08;;;;;;;7.55;5.40;;;14.40;99.90;;;;;;8315188;28;20301;-82
2023/10/07 17:50:12;;;;;;;8.88;5.40;;;14.40;99.90;;;;;;8308433;28;20029;-82
2023/10/07 17:54:15;;;;;;;10.00;6.28;;;14.40;99.90;;;;;;8326544;28;20079;-82
2023/10/07 17:58:19;;;;;;;9.23;5.68;;;14.40;99.90;;;;;;8346064;28;20386;-82
2023/10/07 18:02:20;;;;;;;10.73;6.40;;;14.30;99.90;;;;;;8340634;28;20031;-82
2023/10/07 18:06:20;;;;;;;8.23;5.70;;;14.30;99.90;;;;;;8328051;28;20033;-83
2023/10/07 18:10:22;;;;;;;11.23;6.90;;;14.50;99.90;;;;;;8320243;28;20036;-82
2023/10/07 18:14:23;;;;;;;9.95;6.47;;;14.60;99.90;;;;;;8323417;28;20120;-82
2023/10/07 18:18:23;;;;;;;11.65;6.90;;;14.70;99.90;;;;;;8323027;28;20052;-82
2023/10/07 18:22:24;;;;;;;11.57;6.80;;;14.80;99.90;;;;;;8314136;28;20064;-83
2023/10/07 18:26:24;;;;;;;11.50;6.35;;;14.90;99.90;;;;;;8335315;28;20029;-82
2023/10/07 18:30:25;;;;;;;11.15;7.03;;;14.90;99.90;;;;;;8319774;28;20036;-83
2023/10/07 18:34:25;;;;;;;10.35;7.18;;;15.10;99.90;;;;;;8307256;28;20028;-83
2023/10/07 18:38:26;;;;;;;12.10;7.43;;;15.10;99.90;;;;;;8303394;28;20037;-83
2023/10/07 18:42:31;;;;;;;14.35;6.95;;;15.10;99.90;;;;;;8324098;28;20033;-83
2023/10/07 18:46:31;;;;;;;10.10;6.82;;;15.20;99.90;;;;;;8329279;28;20044;-83
2023/10/07 18:50:32;;;;;;;11.55;6.80;;;15.40;99.90;;;;;;8335313;28;20026;-83
2023/10/07 18:54:32;;;;;;;9.77;6.22;;;15.40;99.90;;;;;;8327076;28;20432;-83
2023/10/07 18:58:33;;;;;;;8.27;5.60;;;15.80;99.90;;;;;;8323728;28;20136;-84
2023/10/07 19:02:34;;;;;;;9.48;6.00;;;15.80;99.90;;;;;;8339783;28;20021;-84
2023/10/07 19:06:36;;;;;;;9.45;5.78;;;15.90;99.90;;;;;;8331156;28;20060;-84
2023/10/07 19:10:42;;;;;;;8.82;5.88;;;15.80;99.90;;;;;;8336511;28;20029;-84
2023/10/07 19:14:46;;;;;;;8.52;5.47;;;15.70;99.90;;;;;;8338361;28;20116;-83
2023/10/07 19:18:46;;;;;;;7.85;5.38;;;15.60;99.90;;;;;;8325496;28;20029;-83
2023/10/07 19:22:47;;;;;;;7.55;5.72;;;15.70;99.90;;;;;;8326357;28;20401;-84
2023/10/07 19:26:47;;;;;;;7.43;4.70;;;15.70;99.90;;;;;;8313378;28;20060;-83
2023/10/07 19:30:48;;;;;;;6.07;4.43;;;15.80;99.90;;;;;;8320309;28;20351;-84
2023/10/07 19:34:53;;;;;;;6.90;5.05;;;15.80;99.90;;;;;;8344119;28;20029;-84
2023/10/07 19:38:54;;;;;;;8.85;5.35;;;15.90;99.90;;;;;;8315151;28;20036;-84
2023/10/07 19:42:54;;;;;;;7.93;5.03;;;15.80;99.90;;;;;;8315732;28;20120;-84
2023/10/07 19:46:55;;;;;;;6.95;4.80;;;15.80;99.90;;;;;;8341853;28;20501;-83
2023/10/07 19:50:57;;;;;;;6.90;4.70;;;15.50;99.90;;;;;;8323067;28;20021;-84
2023/10/07 19:54:58;;;;;;;7.60;4.38;;;15.70;99.90;;;;;;8330327;28;20025;-84
2023/10/07 19:59:00;;;;;;;6.40;4.18;;;15.90;99.90;;;;;;8312186;28;20111;-84
2023/10/07 20:03:02;;;;;;;6.15;4.13;;;16.00;99.90;;;;;;8320100;28;20029;-84
2023/10/07 20:07:03;;;;;;;9.43;4.45;;;15.90;99.90;;;;;;8343528;28;20397;-84
2023/10/07 20:11:04;;;;;;;6.82;4.28;;;15.70;99.90;;;;;;8308565;28;20025;-84
2023/10/07 20:15:09;;;;;;;7.30;3.90;;;15.70;99.90;;;;;;8331938;28;20059;-83
2023/10/07 20:19:11;;;;;;;7.95;4.32;;;15.80;99.90;;;;;;8321368;28;20033;-83
2023/10/07 20:23:11;;;;;;;5.68;3.63;;;15.80;99.90;;;;;;8310168;28;20032;-84
2023/10/07 20:27:13;;;;;;;6.47;3.90;;;15.90;99.90;;;;;;8316541;28;20029;-83
2023/10/07 20:31:16;;;;;;;6.95;4.22;;;15.70;99.90;;;;;;8316831;28;20025;-84
2023/10/07 20:35:19;;;;;;;6.30;3.80;;;15.60;99.90;;;;;;8318916;28;20017;-84
2023/10/07 20:39:19;;;;;;;7.78;3.88;;;15.50;99.90;;;;;;8316124;28;20044;-84
2023/10/07 20:43:20;;;;;;;6.63;4.20;;;15.50;99.90;;;;;;8323290;28;20121;-84
2023/10/07 20:47:22;;;;;;;6.43;3.97;;;15.50;99.90;;;;;;8322515;28;20029;-84
2023/10/07 20:51:23;;;;;;;8.95;3.80;;;15.40;99.90;;;;;;8333934;28;20021;-84
2023/10/07 20:55:24;;;;;;;6.97;3.78;;;15.30;99.90;;;;;;8326535;28;20354;-84
2023/10/07 20:59:28;;;;;;;5.88;3.90;;;15.50;99.90;;;;;;8312383;28;21484;-83
2023/10/07 21:03:28;;;;;;;6.28;3.80;;;15.50;99.90;;;;;;8325887;28;20031;-84
2023/10/07 21:07:29;;;;;;;7.97;3.95;;;15.30;99.90;;;;;;8310571;28;20025;-83
2023/10/07 21:11:29;;;;;;;5.60;3.67;;;15.30;99.90;;;;;;8311129;28;20025;-84
2023/10/07 21:15:37;;;;;;;6.25;3.85;;;15.50;99.90;;;;;;8348528;28;20024;-83
2023/10/07 21:19:38;;;;;;;5.68;3.63;;;15.50;99.90;;;;;;8333635;28;20497;-83
2023/10/07 21:23:40;;;;;;;5.25;3.63;;;15.60;99.90;;;;;;8340387;28;20057;-83
2023/10/07 21:27:40;;;;;;;5.65;3.83;;;15.60;99.90;;;;;;8333630;28;20076;-83
2023/10/07 21:31:41;;;;;;;4.90;3.45;;;15.70;99.90;;;;;;8333517;28;20581;-83
2023/10/07 21:35:42;;;;;;;7.45;3.72;;;15.60;99.90;;;;;;8348219;28;20112;-83